Time;durP1;ratioP1;P1;durP2;ratioP2;P2;SDS_P1;SDS_P2;PMS_P1;PMS_P2;Temp;Humidity;BMP_temperature;BMP_pressure;BME280_temperature;BME280_humidity;BME280_pressure;Samples;Min_cycle;Max_cycle;Signal;HPM_P1;HPM_P2
2022/06/29 00:00:12;;;;;;;;;;;16.40;99.90;;;;;;5075251;28;19904;-82
2022/06/29 00:02:40;;;;;;;;;;;16.50;99.90;;;;;;5075193;28;20007;-82
2022/06/29 00:05:07;;;;;;;;;;;16.50;99.90;;;;;;5075337;28;20375;-82
2022/06/29 00:07:32;;;;;;;;;;;16.50;99.90;;;;;;5075207;28;19908;-82
2022/06/29 00:09:58;;;;;;;;;;;16.50;99.90;;;;;;5075301;28;19904;-82
2022/06/29 00:12:24;;;;;;;;;;;16.50;99.90;;;;;;5075252;28;19904;-82
2022/06/29 00:14:49;;;;;;;;;;;16.40;99.90;;;;;;5074934;28;19905;-82
2022/06/29 00:17:24;;;;;;;;;;;16.40;99.90;;;;;;5075272;28;19904;-82
2022/06/29 00:19:50;;;;;;;;;;;16.30;99.90;;;;;;5075224;28;19909;-82
2022/06/29 00:22:15;;;;;;;;;;;16.20;99.90;;;;;;5075069;28;19927;-82
2022/06/29 00:24:41;;;;;;;;;;;16.20;99.90;;;;;;5073998;28;19954;-82
2022/06/29 00:27:08;;;;;;;;;;;16.20;99.90;;;;;;5074733;28;19912;-82
2022/06/29 00:29:34;;;;;;;;;;;16.20;99.90;;;;;;5073496;28;19904;-82
2022/06/29 00:31:59;;;;;;;;;;;16.30;99.90;;;;;;5073410;28;19944;-81
2022/06/29 00:34:25;;;;;;;;;;;16.30;99.90;;;;;;5073320;28;19974;-82
2022/06/29 00:36:58;;;;;;;;;;;16.30;99.90;;;;;;5074372;28;19908;-82
2022/06/29 00:39:23;;;;;;;;;;;16.30;99.90;;;;;;5073541;28;20280;-82
2022/06/29 00:41:49;;;;;;;;;;;16.30;99.90;;;;;;5073281;28;19908;-82
2022/06/29 00:44:15;;;;;;;;;;;16.30;99.90;;;;;;5073225;28;20458;-82
2022/06/29 00:46:57;;;;;;;;;;;16.40;99.90;;;;;;5073897;28;19958;-82
2022/06/29 00:49:25;;;;;;;;;;;16.40;99.90;;;;;;5073189;28;20437;-82
2022/06/29 00:52:10;;;;;;;;;;;16.40;99.90;;;;;;5072943;28;19958;-82
2022/06/29 00:54:38;;;;;;;;;;;16.40;99.90;;;;;;5074177;28;19944;-82
2022/06/29 00:57:23;;;;;;;;;;;16.40;99.90;;;;;;5072771;28;24072;-82
2022/06/29 00:59:53;;;;;;;;;;;16.40;99.90;;;;;;5073596;28;19908;-82
2022/06/29 01:02:22;;;;;;;;;;;16.40;99.90;;;;;;5075114;28;19904;-82
2022/06/29 01:04:47;;;;;;;;;;;16.30;99.90;;;;;;5074027;28;20357;-82
2022/06/29 01:07:15;;;;;;;;;;;16.30;99.90;;;;;;5073336;28;20007;-82
2022/06/29 01:09:40;;;;;;;;;;;16.30;99.90;;;;;;5073766;28;19904;-82
2022/06/29 01:12:06;;;;;;;;;;;16.30;99.90;;;;;;5073262;28;19958;-82
2022/06/29 01:14:32;;;;;;;;;;;16.30;99.90;;;;;;5074141;28;20284;-82
2022/06/29 01:16:57;;;;;;;;;;;16.30;99.90;;;;;;5074452;28;20353;-82
2022/06/29 01:19:24;;;;;;;;;;;16.30;99.90;;;;;;5073921;28;20268;-82
2022/06/29 01:21:53;;;;;;;;;;;16.30;99.90;;;;;;5074335;28;19935;-82
2022/06/29 01:24:20;;;;;;;;;;;16.40;99.90;;;;;;5074016;28;19953;-82
2022/06/29 01:26:49;;;;;;;;;;;16.40;99.90;;;;;;5073046;28;19940;-82
2022/06/29 01:29:15;;;;;;;;;;;16.40;99.90;;;;;;5073829;28;19904;-82
2022/06/29 01:31:41;;;;;;;;;;;16.30;99.90;;;;;;5073774;28;19912;-82
2022/06/29 01:34:07;;;;;;;;;;;16.30;99.90;;;;;;5073672;28;19905;-82
2022/06/29 01:36:40;;;;;;;;;;;16.30;99.90;;;;;;5073604;28;20288;-82
2022/06/29 01:39:05;;;;;;;;;;;16.20;99.90;;;;;;5073536;28;19911;-82
2022/06/29 01:41:31;;;;;;;;;;;16.20;99.90;;;;;;5073421;28;19991;-82
2022/06/29 01:43:56;;;;;;;;;;;16.20;99.90;;;;;;5073427;28;19905;-82
2022/06/29 01:46:23;;;;;;;;;;;16.20;99.90;;;;;;5073260;28;19904;-82
2022/06/29 01:48:48;;;;;;;;;;;16.20;99.90;;;;;;5073641;28;19912;-82
2022/06/29 01:51:14;;;;;;;;;;;16.20;99.90;;;;;;5073467;28;19966;-82
2022/06/29 01:53:39;;;;;;;;;;;16.10;99.90;;;;;;5073128;28;19913;-82
2022/06/29 01:56:06;;;;;;;;;;;16.10;99.90;;;;;;5073264;28;20379;-82
2022/06/29 01:58:32;;;;;;;;;;;16.10;99.90;;;;;;5074334;28;19908;-82
2022/06/29 02:00:57;;;;;;;;;;;16.10;99.90;;;;;;5073532;28;19904;-82
2022/06/29 02:03:23;;;;;;;;;;;16.10;99.90;;;;;;5073102;28;19911;-82
2022/06/29 02:05:48;;;;;;;;;;;16.20;99.90;;;;;;5072982;28;20277;-82
2022/06/29 02:08:14;;;;;;;;;;;16.20;99.90;;;;;;5074295;28;20333;-82
2022/06/29 02:10:40;;;;;;;;;;;16.20;99.90;;;;;;5072936;28;19911;-82
2022/06/29 02:13:05;;;;;;;;;;;16.20;99.90;;;;;;5072986;28;19905;-82
2022/06/29 02:15:31;;;;;;;;;;;16.10;99.90;;;;;;5072944;28;19949;-82
2022/06/29 02:18:12;;;;;;;;;;;16.10;99.90;;;;;;5072821;28;20367;-82
2022/06/29 02:20:38;;;;;;;;;;;16.00;99.90;;;;;;5072952;28;19950;-82
2022/06/29 02:23:04;;;;;;;;;;;15.90;99.90;;;;;;5072777;28;19950;-82
2022/06/29 02:25:29;;;;;;;;;;;16.00;99.90;;;;;;5072705;28;19908;-83
2022/06/29 02:27:55;;;;;;;;;;;15.90;99.90;;;;;;5072883;28;19915;-82
2022/06/29 02:35:56;;;;;;;;;;;16.00;99.90;;;;;;5074243;28;19912;-82
2022/06/29 02:38:21;;;;;;;;;;;15.90;99.90;;;;;;5071585;28;20269;-82
2022/06/29 02:40:47;;;;;;;;;;;15.90;99.90;;;;;;5072692;28;19912;-82
2022/06/29 02:43:12;;;;;;;;;;;15.80;99.90;;;;;;5072635;28;19908;-82
2022/06/29 02:45:38;;;;;;;;;;;15.80;99.90;;;;;;5072487;28;20419;-82
2022/06/29 02:48:04;;;;;;;;;;;15.80;99.90;;;;;;5072548;28;19915;-82
2022/06/29 02:50:29;;;;;;;;;;;15.80;99.90;;;;;;5072479;28;19991;-82
2022/06/29 02:52:55;;;;;;;;;;;15.70;99.90;;;;;;5072359;28;20342;-82
2022/06/29 02:55:21;;;;;;;;;;;15.70;99.90;;;;;;5072457;28;19931;-82
2022/06/29 02:57:46;;;;;;;;;;;15.60;99.90;;;;;;5072479;28;20254;-82
2022/06/29 03:00:13;;;;;;;;;;;15.60;99.90;;;;;;5072407;28;20368;-82
2022/06/29 03:02:38;;;;;;;;;;;15.60;99.90;;;;;;5072395;28;19926;-83
2022/06/29 03:05:04;;;;;;;;;;;15.60;99.90;;;;;;5072396;28;19904;-82
2022/06/29 03:07:30;;;;;;;;;;;15.50;99.90;;;;;;5072221;28;20392;-82
2022/06/29 03:09:55;;;;;;;;;;;15.50;99.90;;;;;;5072550;28;19904;-82
2022/06/29 03:12:21;;;;;;;;;;;15.50;99.90;;;;;;5072467;28;20353;-82
2022/06/29 03:14:46;;;;;;;;;;;15.50;99.90;;;;;;5072424;28;20349;-82
2022/06/29 03:17:12;;;;;;;;;;;15.50;99.90;;;;;;5072485;28;20355;-82
2022/06/29 03:19:37;;;;;;;;;;;15.50;99.90;;;;;;5072209;28;20297;-82
2022/06/29 03:22:03;;;;;;;;;;;15.50;99.90;;;;;;5072136;28;19908;-82
2022/06/29 03:24:28;;;;;;;;;;;15.60;99.90;;;;;;5072141;28;19931;-82
2022/06/29 03:26:54;;;;;;;;;;;15.70;99.90;;;;;;5072043;28;19904;-82
2022/06/29 03:29:19;;;;;;;;;;;15.70;99.90;;;;;;5072191;28;19915;-82
2022/06/29 03:31:45;;;;;;;;;;;15.80;99.90;;;;;;5072277;28;19957;-82
2022/06/29 03:34:10;;;;;;;;;;;15.80;99.90;;;;;;5072669;28;20333;-82
2022/06/29 03:36:38;;;;;;;;;;;15.90;99.90;;;;;;5072024;28;19904;-82
2022/06/29 03:39:04;;;;;;;;;;;15.90;99.90;;;;;;5072215;28;20423;-82
2022/06/29 03:41:30;;;;;;;;;;;15.90;99.90;;;;;;5072003;28;20018;-83
2022/06/29 03:43:55;;;;;;;;;;;15.90;99.90;;;;;;5072000;28;20361;-84
2022/06/29 03:46:21;;;;;;;;;;;15.90;99.90;;;;;;5070718;28;20314;-84
2022/06/29 03:48:47;;;;;;;;;;;15.90;99.90;;;;;;5069879;28;19908;-83
2022/06/29 03:51:22;;;;;;;;;;;15.90;99.90;;;;;;5073974;28;19904;-84
2022/06/29 03:53:51;;;;;;;;;;;15.90;99.90;;;;;;5073653;28;19912;-84
2022/06/29 03:56:17;;;;;;;;;;;15.80;99.90;;;;;;5073187;28;19959;-83
2022/06/29 03:58:43;;;;;;;;;;;15.80;99.90;;;;;;5073083;28;20001;-84
2022/06/29 04:01:08;;;;;;;;;;;15.70;99.90;;;;;;5070663;28;19905;-83
2022/06/29 04:03:34;;;;;;;;;;;15.70;99.90;;;;;;5074744;28;19908;-83
2022/06/29 04:06:00;;;;;;;;;;;15.70;99.90;;;;;;5074923;28;19904;-83
2022/06/29 04:08:25;;;;;;;;;;;15.70;99.90;;;;;;5076655;28;19955;-83
2022/06/29 04:10:51;;;;;;;;;;;15.70;99.90;;;;;;5074802;28;19987;-83
2022/06/29 04:13:17;;;;;;;;;;;15.70;99.90;;;;;;5076436;28;19911;-83
2022/06/29 04:15:43;;;;;;;;;;;15.80;99.90;;;;;;5074019;28;19913;-83
2022/06/29 04:18:09;;;;;;;;;;;15.80;99.90;;;;;;5072937;28;19908;-84
2022/06/29 04:23:19;;;;;;;;;;;15.90;99.90;;;;;;5074470;28;20007;-83
2022/06/29 04:25:45;;;;;;;;;;;15.90;99.90;;;;;;5075387;28;20296;-83
2022/06/29 04:28:26;;;;;;;;;;;15.90;99.90;;;;;;5074220;28;19930;-83
2022/06/29 04:30:52;;;;;;;;;;;15.90;99.90;;;;;;5075166;28;20258;-84
2022/06/29 04:33:17;;;;;;;;;;;15.90;99.90;;;;;;5074971;28;19926;-82
2022/06/29 04:35:43;;;;;;;;;;;15.90;99.90;;;;;;5076489;28;19904;-82
2022/06/29 04:38:09;;;;;;;;;;;16.00;99.90;;;;;;5074952;28;19935;-82
2022/06/29 04:40:34;;;;;;;;;;;16.00;99.90;;;;;;5076229;28;19950;-82
2022/06/29 04:43:00;;;;;;;;;;;16.00;99.90;;;;;;5074834;28;19904;-83
2022/06/29 04:48:09;;;;;;;;;;;16.00;99.90;;;;;;5075802;28;20429;-82
2022/06/29 04:50:35;;;;;;;;;;;16.00;99.90;;;;;;5074572;28;19904;-83
2022/06/29 04:53:00;;;;;;;;;;;16.00;99.90;;;;;;5075604;28;19912;-82
2022/06/29 04:55:28;;;;;;;;;;;16.00;99.90;;;;;;5074380;28;20250;-83
2022/06/29 04:57:53;;;;;;;;;;;16.10;99.90;;;;;;5074367;28;19904;-83
2022/06/29 05:00:19;;;;;;;;;;;16.00;99.90;;;;;;5073590;28;20296;-83
2022/06/29 05:02:45;;;;;;;;;;;16.00;99.90;;;;;;5074015;28;20288;-82
2022/06/29 05:05:12;;;;;;;;;;;16.00;99.90;;;;;;5074682;28;19908;-82
2022/06/29 05:07:37;;;;;;;;;;;16.00;99.90;;;;;;5057383;28;19999;-82
2022/06/29 05:10:03;;;;;;;;;;;16.10;99.90;;;;;;5075687;28;19936;-82
2022/06/29 05:12:29;;;;;;;;;;;16.10;99.90;;;;;;5075835;28;19904;-83
2022/06/29 05:14:54;;;;;;;;;;;16.10;99.90;;;;;;5073973;28;20451;-82
2022/06/29 05:17:20;;;;;;;;;;;16.20;99.90;;;;;;5076123;28;19904;-83
2022/06/29 05:19:46;;;;;;;;;;;16.20;99.90;;;;;;5073779;28;19905;-83
2022/06/29 05:22:12;;;;;;;;;;;16.30;99.90;;;;;;5073824;28;19939;-82
2022/06/29 05:24:37;;;;;;;;;;;16.30;99.90;;;;;;5073794;28;19944;-80
2022/06/29 05:27:03;;;;;;;;;;;16.40;99.90;;;;;;5074904;28;19905;-80
2022/06/29 05:29:28;;;;;;;;;;;16.40;99.90;;;;;;5075286;28;19934;-80
2022/06/29 05:31:54;;;;;;;;;;;16.50;99.90;;;;;;5073711;28;19904;-80
2022/06/29 05:34:20;;;;;;;;;;;16.50;99.90;;;;;;5075065;28;19915;-80
2022/06/29 05:36:45;;;;;;;;;;;16.50;99.90;;;;;;5073538;28;20017;-81
2022/06/29 05:39:11;;;;;;;;;;;16.50;99.90;;;;;;5074783;28;19904;-81
2022/06/29 05:41:36;;;;;;;;;;;16.50;99.90;;;;;;5074725;28;19912;-80
2022/06/29 05:44:04;;;;;;;;;;;16.50;99.90;;;;;;5075047;28;20264;-80
2022/06/29 05:46:33;;;;;;;;;;;16.50;99.90;;;;;;5074628;28;19908;-80
2022/06/29 05:48:58;;;;;;;;;;;16.40;99.90;;;;;;5075092;28;19915;-80
2022/06/29 05:51:24;;;;;;;;;;;16.40;99.90;;;;;;5074572;28;19908;-80
2022/06/29 05:53:50;;;;;;;;;;;16.30;99.90;;;;;;5074492;28;19967;-80
2022/06/29 05:56:16;;;;;;;;;;;16.30;99.90;;;;;;5074449;28;20303;-80
2022/06/29 05:58:42;;;;;;;;;;;16.30;99.90;;;;;;5074391;28;20327;-80
2022/06/29 06:01:09;;;;;;;;;;;16.30;99.90;;;;;;5073113;28;19905;-80
2022/06/29 06:03:38;;;;;;;;;;;16.30;99.90;;;;;;5074399;28;19904;-80
2022/06/29 06:06:03;;;;;;;;;;;16.40;99.90;;;;;;5074206;28;19987;-80
2022/06/29 06:08:29;;;;;;;;;;;16.40;99.90;;;;;;5074683;28;19951;-82
2022/06/29 06:10:55;;;;;;;;;;;16.40;99.90;;;;;;5072750;28;19978;-82
2022/06/29 06:13:20;;;;;;;;;;;16.40;99.90;;;;;;5074110;28;19911;-82
2022/06/29 06:15:46;;;;;;;;;;;16.50;99.90;;;;;;5074628;28;20030;-82
2022/06/29 06:18:11;;;;;;;;;;;16.50;99.90;;;;;;5072906;28;19999;-82
2022/06/29 06:20:37;;;;;;;;;;;16.50;99.90;;;;;;5074455;28;19904;-82
2022/06/29 06:23:02;;;;;;;;;;;16.60;99.90;;;;;;5072859;28;19911;-83
2022/06/29 06:25:28;;;;;;;;;;;16.60;99.90;;;;;;5073874;28;19905;-83
2022/06/29 06:27:53;;;;;;;;;;;16.50;99.90;;;;;;5073928;28;20323;-83
2022/06/29 06:30:19;;;;;;;;;;;16.50;99.90;;;;;;5072767;28;20254;-83
2022/06/29 06:32:45;;;;;;;;;;;16.60;99.90;;;;;;5073596;28;19927;-83
2022/06/29 06:35:10;;;;;;;;;;;16.60;99.90;;;;;;5074822;28;19905;-83
2022/06/29 06:37:36;;;;;;;;;;;16.60;99.90;;;;;;5073975;28;19904;-83
2022/06/29 06:42:45;;;;;;;;;;;16.70;99.90;;;;;;5072160;28;19911;-83
2022/06/29 06:45:11;;;;;;;;;;;16.80;99.90;;;;;;5070090;28;19908;-83
2022/06/29 06:47:37;;;;;;;;;;;16.80;99.90;;;;;;5071755;28;19909;-83
2022/06/29 06:50:03;;;;;;;;;;;16.70;99.90;;;;;;5070422;28;19905;-83
2022/06/29 06:52:29;;;;;;;;;;;16.70;99.90;;;;;;5071684;28;20250;-84
2022/06/29 06:54:54;;;;;;;;;;;16.70;99.90;;;;;;5072458;28;19912;-84
2022/06/29 06:57:20;;;;;;;;;;;16.80;99.90;;;;;;5073548;28;20250;-84
2022/06/29 06:59:46;;;;;;;;;;;16.80;99.90;;;;;;5073713;28;19904;-83
2022/06/29 07:02:11;;;;;;;;;;;16.80;99.90;;;;;;5073490;28;19931;-83
2022/06/29 07:04:37;;;;;;;;;;;16.80;99.90;;;;;;5072653;28;19915;-83
2022/06/29 07:07:02;;;;;;;;;;;16.80;99.90;;;;;;5073259;28;19958;-83
2022/06/29 07:09:28;;;;;;;;;;;17.00;99.90;;;;;;5072267;28;20439;-83
2022/06/29 07:11:53;;;;;;;;;;;17.00;99.90;;;;;;5072142;28;19943;-83
2022/06/29 07:14:19;;;;;;;;;;;17.00;99.90;;;;;;5072333;28;19968;-84
2022/06/29 07:16:44;;;;;;;;;;;17.00;99.90;;;;;;5072522;28;20360;-84
2022/06/29 07:19:10;;;;;;;;;;;17.00;99.90;;;;;;5073858;28;19904;-84
2022/06/29 07:21:35;;;;;;;;;;;17.00;99.90;;;;;;5072201;28;20382;-84
2022/06/29 07:24:01;;;;;;;;;;;17.10;99.90;;;;;;5072990;28;19911;-84
2022/06/29 07:26:27;;;;;;;;;;;17.10;99.90;;;;;;5075899;28;19904;-83
2022/06/29 07:28:52;;;;;;;;;;;17.10;99.90;;;;;;5076932;28;19909;-83
2022/06/29 07:31:18;;;;;;;;;;;17.10;99.90;;;;;;5075394;28;19912;-83
2022/06/29 07:33:43;;;;;;;;;;;17.20;99.90;;;;;;5077106;28;20313;-84
2022/06/29 07:36:09;;;;;;;;;;;17.20;99.90;;;;;;5076360;28;19908;-84
2022/06/29 07:38:35;;;;;;;;;;;17.20;99.90;;;;;;5078148;28;19983;-84
2022/06/29 07:41:01;;;;;;;;;;;17.20;99.90;;;;;;5077238;28;19930;-83
2022/06/29 07:43:27;;;;;;;;;;;17.30;99.90;;;;;;5075634;28;19904;-83
2022/06/29 07:45:52;;;;;;;;;;;17.30;99.90;;;;;;5075254;28;20002;-84
2022/06/29 07:48:18;;;;;;;;;;;17.30;99.90;;;;;;5075025;28;20000;-83
2022/06/29 07:50:44;;;;;;;;;;;17.30;99.90;;;;;;5076426;28;20353;-84
2022/06/29 07:53:10;;;;;;;;;;;17.30;99.90;;;;;;5074850;28;19916;-84
2022/06/29 07:55:36;;;;;;;;;;;17.30;99.90;;;;;;5074704;28;20267;-84
2022/06/29 07:58:01;;;;;;;;;;;17.40;99.90;;;;;;5074691;28;20000;-84
2022/06/29 08:00:27;;;;;;;;;;;17.40;99.90;;;;;;5076229;28;19935;-84
2022/06/29 08:02:53;;;;;;;;;;;17.40;99.90;;;;;;5075765;28;19958;-84
2022/06/29 08:05:18;;;;;;;;;;;17.40;99.90;;;;;;5074441;28;19940;-84
2022/06/29 08:07:44;;;;;;;;;;;17.40;99.90;;;;;;5074752;28;19908;-84
2022/06/29 08:10:10;;;;;;;;;;;17.40;99.90;;;;;;5074535;28;19915;-84
2022/06/29 08:12:35;;;;;;;;;;;17.40;99.90;;;;;;5075269;28;19904;-84
2022/06/29 08:15:01;;;;;;;;;;;17.40;99.90;;;;;;5073880;28;19941;-84
2022/06/29 08:17:27;;;;;;;;;;;17.50;99.90;;;;;;5075360;28;19947;-84
2022/06/29 08:19:52;;;;;;;;;;;17.50;99.90;;;;;;5075037;28;20386;-84
2022/06/29 08:22:18;;;;;;;;;;;17.50;99.90;;;;;;5074960;28;19974;-83
2022/06/29 08:24:43;;;;;;;;;;;17.50;99.90;;;;;;5075403;28;19927;-84
2022/06/29 08:27:09;;;;;;;;;;;17.50;99.90;;;;;;5075281;28;19915;-83
2022/06/29 08:29:34;;;;;;;;;;;17.60;99.90;;;;;;5073835;28;19904;-84
2022/06/29 08:32:00;;;;;;;;;;;17.50;99.90;;;;;;5073978;28;19905;-84
2022/06/29 08:34:29;;;;;;;;;;;17.50;99.90;;;;;;5073966;28;19905;-84
2022/06/29 08:36:55;;;;;;;;;;;17.50;99.90;;;;;;5075123;28;19999;-84
2022/06/29 08:39:21;;;;;;;;;;;17.60;99.90;;;;;;5075526;28;20352;-84
2022/06/29 08:41:47;;;;;;;;;;;17.60;99.90;;;;;;5074135;28;25119;-84
2022/06/29 08:44:12;;;;;;;;;;;17.60;99.90;;;;;;5074311;28;19909;-84
2022/06/29 08:46:38;;;;;;;;;;;17.60;99.90;;;;;;5075450;28;19904;-84
2022/06/29 08:49:04;;;;;;;;;;;17.60;99.90;;;;;;5074273;28;19916;-84
2022/06/29 08:51:34;;;;;;;;;;;17.60;99.90;;;;;;5075287;28;19908;-84
2022/06/29 08:54:01;;;;;;;;;;;17.60;99.90;;;;;;5075127;28;19920;-84
2022/06/29 08:56:26;;;;;;;;;;;17.60;99.90;;;;;;5073896;28;19966;-84
2022/06/29 08:58:52;;;;;;;;;;;17.60;99.90;;;;;;5074292;28;20407;-83
2022/06/29 09:01:18;;;;;;;;;;;17.70;99.90;;;;;;5075326;28;19904;-83
2022/06/29 09:03:44;;;;;;;;;;;17.70;99.90;;;;;;5075177;28;20284;-83
2022/06/29 09:06:10;;;;;;;;;;;17.70;99.90;;;;;;5073760;28;20017;-83
2022/06/29 09:08:35;;;;;;;;;;;17.70;99.90;;;;;;5074981;28;20360;-83
2022/06/29 09:11:20;;;;;;;;;;;17.70;99.90;;;;;;5074583;28;19908;-83
2022/06/29 09:13:46;;;;;;;;;;;17.80;99.90;;;;;;5074978;28;19905;-83
2022/06/29 09:16:11;;;;;;;;;;;17.80;99.90;;;;;;5074424;28;19908;-83
2022/06/29 09:18:37;;;;;;;;;;;17.80;99.90;;;;;;5074724;28;19927;-82
2022/06/29 09:21:04;;;;;;;;;;;17.70;99.90;;;;;;5074276;28;24071;-82
2022/06/29 09:23:31;;;;;;;;;;;17.70;99.90;;;;;;5072777;28;20015;-82
2022/06/29 09:25:56;;;;;;;;;;;17.70;99.90;;;;;;5073668;28;20368;-82
2022/06/29 09:28:23;;;;;;;;;;;17.70;99.90;;;;;;5074114;28;19951;-82
2022/06/29 09:30:49;;;;;;;;;;;17.70;99.90;;;;;;5072891;28;19904;-82
2022/06/29 09:33:14;;;;;;;;;;;17.70;99.90;;;;;;5073092;28;19905;-83
2022/06/29 09:35:40;;;;;;;;;;;17.80;99.90;;;;;;5074103;28;19905;-83
2022/06/29 09:38:22;;;;;;;;;;;17.90;99.90;;;;;;5074006;28;19905;-83
2022/06/29 09:41:02;;;;;;;;;;;17.90;99.90;;;;;;5073915;28;25117;-83
2022/06/29 09:43:28;;;;;;;;;;;17.90;99.90;;;;;;5074347;28;19920;-83
2022/06/29 09:45:54;;;;;;;;;;;17.90;99.90;;;;;;5074152;28;19958;-83
2022/06/29 09:48:24;;;;;;;;;;;18.00;99.90;;;;;;5073102;28;25101;-83
2022/06/29 09:50:50;;;;;;;;;;;18.00;99.90;;;;;;5072235;28;19905;-83
2022/06/29 09:53:17;;;;;;;;;;;18.10;99.90;;;;;;5072371;28;20410;-83
2022/06/29 09:55:43;;;;;;;;;;;18.10;99.90;;;;;;5072228;28;19957;-83
2022/06/29 09:58:09;;;;;;;;;;;18.10;99.90;;;;;;5071898;28;19908;-83
2022/06/29 10:03:19;;;;;;;;;;;18.10;99.90;;;;;;5072825;28;19910;-83
2022/06/29 10:05:54;;;;;;;;;;;18.10;99.90;;;;;;5071405;28;20006;-83
2022/06/29 10:08:20;;;;;;;;;;;18.00;99.90;;;;;;5071624;28;19991;-83
2022/06/29 10:10:50;;;;;;;;;;;18.00;99.90;;;;;;5072931;28;20336;-83
2022/06/29 10:16:23;;;;;;;;;;;18.00;99.90;;;;;;5072295;28;24084;-83
2022/06/29 10:18:57;;;;;;;;;;;18.00;99.90;;;;;;5071590;28;20341;-83
2022/06/29 10:21:24;;;;;;;;;;;18.00;99.90;;;;;;5072665;28;19911;-83
2022/06/29 10:23:53;;;;;;;;;;;18.00;99.90;;;;;;5072473;28;19999;-83
2022/06/29 10:26:24;;;;;;;;;;;17.90;99.90;;;;;;5072596;28;25134;-83
2022/06/29 10:28:51;;;;;;;;;;;18.00;99.90;;;;;;5072823;28;19912;-83
2022/06/29 10:31:17;;;;;;;;;;;18.00;99.90;;;;;;5074890;28;19995;-83
2022/06/29 10:33:43;;;;;;;;;;;18.00;99.90;;;;;;5072944;28;19975;-85
2022/06/29 10:36:09;;;;;;;;;;;18.00;99.90;;;;;;5077591;28;20270;-83
2022/06/29 10:38:50;;;;;;;;;;;18.10;99.90;;;;;;5071579;28;19904;-83
2022/06/29 10:43:59;;;;;;;;;;;18.10;99.90;;;;;;5072574;28;20073;-83
2022/06/29 10:46:25;;;;;;;;;;;18.10;99.90;;;;;;5070933;28;24114;-83
2022/06/29 10:49:09;;;;;;;;;;;18.10;99.90;;;;;;5072477;28;19908;-83
2022/06/29 10:51:35;;;;;;;;;;;18.10;99.90;;;;;;5072024;28;20000;-83
2022/06/29 10:54:00;;;;;;;;;;;18.20;99.90;;;;;;5072232;28;19958;-83
2022/06/29 10:56:26;;;;;;;;;;;18.20;99.90;;;;;;5070729;28;19904;-84
2022/06/29 10:58:53;;;;;;;;;;;18.30;99.90;;;;;;5072686;28;20402;-84
2022/06/29 11:01:19;;;;;;;;;;;18.30;99.90;;;;;;5076273;28;20007;-84
2022/06/29 11:03:45;;;;;;;;;;;18.30;99.90;;;;;;5074870;28;19961;-84
2022/06/29 11:17:39;;;;;;;;;;;18.30;99.90;;;;;;5077087;28;19950;-84
2022/06/29 11:19:56;;;;;;;;;;;18.40;99.90;;;;;;5076026;28;19904;-84
2022/06/29 11:22:22;;;;;;;;;;;18.40;99.90;;;;;;5076274;28;20098;-84
2022/06/29 11:24:53;;;;;;;;;;;18.40;99.90;;;;;;5076012;28;20317;-83
2022/06/29 11:27:38;;;;;;;;;;;18.50;99.90;;;;;;5074721;28;19904;-84
2022/06/29 11:30:05;;;;;;;;;;;18.50;99.90;;;;;;5074709;28;24100;-84
2022/06/29 11:32:36;;;;;;;;;;;18.50;99.90;;;;;;5076087;28;20311;-84
2022/06/29 11:35:01;;;;;;;;;;;18.50;99.90;;;;;;5076894;28;19908;-84
2022/06/29 11:37:27;;;;;;;;;;;18.50;99.90;;;;;;5074426;28;19958;-84
2022/06/29 11:39:53;;;;;;;;;;;18.60;99.90;;;;;;5075778;28;19908;-84
2022/06/29 11:45:20;;;;;;;;;;;18.60;99.90;;;;;;5075863;28;19958;-84
2022/06/29 11:47:52;;;;;;;;;;;18.60;99.90;;;;;;5074034;28;19912;-84
2022/06/29 11:50:18;;;;;;;;;;;18.60;99.90;;;;;;5075343;28;19905;-84
2022/06/29 11:52:50;;;;;;;;;;;18.60;99.90;;;;;;5073891;28;19963;-84
2022/06/29 11:55:36;;;;;;;;;;;18.70;99.90;;;;;;5075160;28;19908;-84
2022/06/29 11:58:01;;;;;;;;;;;18.70;99.90;;;;;;5076143;28;19957;-84
2022/06/29 12:00:27;;;;;;;;;;;18.70;99.90;;;;;;5075249;28;19967;-83
2022/06/29 12:03:00;;;;;;;;;;;18.70;99.90;;;;;;5074089;28;24161;-84
2022/06/29 12:05:26;;;;;;;;;;;18.70;99.90;;;;;;5075246;28;19912;-84
2022/06/29 12:07:51;;;;;;;;;;;18.70;99.90;;;;;;5087824;22;19924;-68
2022/06/29 12:10:17;;;;;;;;;;;18.70;99.90;;;;;;5073345;28;19904;-68
2022/06/29 12:12:42;;;;;;;;;;;18.70;99.90;;;;;;5075225;28;19904;-67
2022/06/29 12:15:09;;;;;;;;;;;18.70;99.90;;;;;;5075447;28;19947;-67
2022/06/29 12:17:36;;;;;;;;;;;18.70;99.90;;;;;;5075322;28;20263;-67
2022/06/29 12:20:03;;;;;;;;;;;18.80;99.90;;;;;;5074976;28;19930;-67
2022/06/29 12:22:29;;;;;;;;;;;18.80;99.90;;;;;;5074528;28;19904;-68
2022/06/29 12:24:54;;;;;;;;;;;18.80;99.90;;;;;;5075147;28;19905;-68
2022/06/29 12:27:20;;;;;;;;;;;18.80;99.90;;;;;;5074551;28;20295;-68
2022/06/29 12:29:45;;;;;;;;;;;18.80;99.90;;;;;;5074558;28;24058;-68
2022/06/29 12:32:11;;;;;;;;;;;18.80;99.90;;;;;;5074923;28;20382;-68
2022/06/29 12:34:37;;;;;;;;;;;18.80;99.90;;;;;;5074750;28;20439;-68
2022/06/29 12:37:03;;;;;;;;;;;18.80;99.90;;;;;;5074824;28;19954;-67
2022/06/29 12:39:29;;;;;;;;;;;18.80;99.90;;;;;;5074401;28;20279;-68
2022/06/29 12:41:54;;;;;;;;;;;18.70;99.90;;;;;;5074609;28;19905;-68
2022/06/29 12:44:20;;;;;;;;;;;18.80;99.90;;;;;;5074606;28;19918;-68
2022/06/29 12:46:46;;;;;;;;;;;18.80;99.90;;;;;;5074634;28;20343;-68
2022/06/29 12:49:11;;;;;;;;;;;18.90;99.90;;;;;;5074143;28;19998;-68
2022/06/29 12:51:37;;;;;;;;;;;18.90;99.90;;;;;;5074249;28;19954;-67
2022/06/29 12:54:02;;;;;;;;;;;18.90;99.90;;;;;;5074227;28;19912;-68
2022/06/29 12:56:28;;;;;;;;;;;18.90;99.90;;;;;;5073902;28;19904;-67
2022/06/29 12:58:54;;;;;;;;;;;19.00;99.90;;;;;;5074343;28;19908;-68
2022/06/29 13:01:20;;;;;;;;;;;19.00;99.90;;;;;;5074343;28;19908;-68
2022/06/29 13:03:46;;;;;;;;;;;19.10;99.90;;;;;;5073754;28;24081;-68
2022/06/29 13:06:11;;;;;;;;;;;19.20;99.90;;;;;;5073787;28;20353;-68
2022/06/29 13:08:37;;;;;;;;;;;19.30;99.90;;;;;;5073591;28;19912;-68
2022/06/29 13:11:02;;;;;;;;;;;19.30;99.90;;;;;;5073999;28;20344;-68
2022/06/29 13:13:29;;;;;;;;;;;19.40;99.90;;;;;;5073763;28;19950;-68
2022/06/29 13:15:54;;;;;;;;;;;19.40;99.90;;;;;;5073706;28;19908;-68
2022/06/29 13:18:20;;;;;;;;;;;19.50;99.90;;;;;;5073448;28;20333;-68
2022/06/29 13:20:46;;;;;;;;;;;19.50;99.90;;;;;;5073763;28;19904;-68
2022/06/29 13:23:14;;;;;;;;;;;19.60;99.90;;;;;;5072863;28;24071;-69
2022/06/29 13:25:39;;;;;;;;;;;19.70;99.90;;;;;;5073474;28;19995;-68
2022/06/29 13:28:05;;;;;;;;;;;19.80;99.90;;;;;;5073384;28;20034;-68
2022/06/29 13:30:31;;;;;;;;;;;19.80;99.90;;;;;;5073996;28;19950;-69
2022/06/29 13:32:56;;;;;;;;;;;19.90;99.90;;;;;;5073737;28;19927;-69
2022/06/29 13:35:22;;;;;;;;;;;20.00;99.90;;;;;;5073569;28;20344;-69
2022/06/29 13:37:47;;;;;;;;;;;20.00;99.90;;;;;;5073220;28;24062;-69
2022/06/29 13:40:13;;;;;;;;;;;20.00;99.90;;;;;;5073694;28;20077;-69
2022/06/29 13:42:39;;;;;;;;;;;20.00;99.90;;;;;;5073248;28;19912;-69
2022/06/29 13:45:05;;;;;;;;;;;20.10;99.90;;;;;;5073726;28;20267;-69
2022/06/29 13:47:30;;;;;;;;;;;20.20;99.90;;;;;;5073031;28;19932;-69
2022/06/29 13:49:56;;;;;;;;;;;20.10;99.90;;;;;;5073453;28;20308;-69
2022/06/29 13:52:22;;;;;;;;;;;20.20;99.90;;;;;;5073160;28;20390;-69
2022/06/29 13:54:47;;;;;;;;;;;20.30;99.90;;;;;;5073069;28;19983;-69
2022/06/29 13:57:13;;;;;;;;;;;20.30;99.90;;;;;;5071577;28;19936;-69
2022/06/29 13:59:38;;;;;;;;;;;20.40;99.90;;;;;;5073130;28;24135;-70
2022/06/29 14:02:04;;;;;;;;;;;20.40;99.90;;;;;;5072974;28;19953;-71
2022/06/29 14:04:29;;;;;;;;;;;20.50;99.90;;;;;;5068211;28;19948;-70
2022/06/29 14:06:55;;;;;;;;;;;20.70;99.90;;;;;;5052925;28;19911;-71
2022/06/29 14:09:21;;;;;;;;;;;20.90;99.90;;;;;;5051819;28;19908;-70
2022/06/29 14:11:47;;;;;;;;;;;21.10;99.90;;;;;;5055422;28;24071;-71
2022/06/29 14:14:13;;;;;;;;;;;21.20;99.90;;;;;;5068465;28;19905;-70
2022/06/29 14:16:39;;;;;;;;;;;21.30;99.90;;;;;;5052883;28;24123;-71
2022/06/29 14:19:05;;;;;;;;;;;21.40;99.90;;;;;;5052754;28;19991;-70
2022/06/29 14:21:31;;;;;;;;;;;21.50;99.90;;;;;;5053023;28;19944;-70
2022/06/29 14:23:56;;;;;;;;;;;21.70;99.90;;;;;;5053521;28;19912;-71
2022/06/29 14:26:22;;;;;;;;;;;21.70;99.90;;;;;;5053249;28;19904;-71
2022/06/29 14:28:48;;;;;;;;;;;21.80;99.90;;;;;;5072598;28;19909;-70
2022/06/29 14:31:13;;;;;;;;;;;21.80;99.90;;;;;;5072912;28;20007;-71
2022/06/29 14:33:39;;;;;;;;;;;21.90;99.90;;;;;;5072898;28;19912;-71
2022/06/29 14:36:04;;;;;;;;;;;21.90;99.90;;;;;;5073365;28;20356;-70
2022/06/29 14:38:30;;;;;;;;;;;21.90;99.90;;;;;;5073206;28;20382;-70
2022/06/29 14:40:56;;;;;;;;;;;21.80;99.90;;;;;;5073224;28;19975;-71
2022/06/29 14:43:21;;;;;;;;;;;21.90;99.90;;;;;;5073078;28;19954;-69
2022/06/29 14:45:48;;;;;;;;;;;21.90;99.90;;;;;;5073388;28;19919;-70
2022/06/29 14:48:13;;;;;;;;;;;21.80;99.90;;;;;;5053849;28;19908;-71